createdAt,value
2018-09-06T00:02:13.201Z,73.37
2018-09-06T00:04:41.204Z,72.51
2018-09-06T00:07:09.213Z,73.07
2018-09-06T00:09:37.262Z,72.24
2018-09-06T00:12:05.448Z,71.90
2018-09-06T00:14:33.450Z,72.90
2018-09-06T00:17:01.455Z,73.02
2018-09-06T00:19:29.473Z,72.21
2018-09-06T00:21:57.491Z,71.71
2018-09-06T00:24:25.497Z,72.22
2018-09-06T00:26:53.503Z,73.09
2018-09-06T00:29:21.509Z,72.61
2018-09-06T00:31:49.549Z,73.24
2018-09-06T00:34:17.596Z,72.62
2018-09-06T00:36:45.784Z,72.80
2018-09-06T00:39:13.852Z,71.81
2018-09-06T00:41:41.853Z,71.94
2018-09-06T00:44:09.849Z,72.22
2018-09-06T00:46:37.858Z,71.07
2018-09-06T00:49:05.980Z,70.95
2018-09-06T00:51:33.988Z,72.57
2018-09-06T00:54:01.999Z,72.83
2018-09-06T00:56:30.042Z,72.42
2018-09-06T00:58:58.057Z,73.05
2018-09-06T01:01:26.304Z,72.37
2018-09-06T01:03:54.324Z,71.35
2018-09-06T01:06:22.339Z,71.87
2018-09-06T01:08:50.320Z,71.55
2018-09-06T01:11:18.347Z,72.19
2018-09-06T01:13:46.354Z,71.09
2018-09-06T01:16:14.365Z,71.65
2018-09-06T01:18:42.389Z,71.33
2018-09-06T01:21:10.385Z,70.93
2018-09-06T01:23:38.392Z,71.44
2018-09-06T01:26:06.604Z,71.96
2018-09-06T01:28:34.585Z,71.83
2018-09-06T01:31:02.580Z,71.24
2018-09-06T01:33:30.621Z,71.30
2018-09-06T01:36:03.931Z,70.98
2018-09-06T01:38:31.990Z,72.52
2018-09-06T01:40:59.940Z,71.67
2018-09-06T01:43:27.942Z,72.71
2018-09-06T01:45:55.948Z,72.76
2018-09-06T01:48:23.958Z,72.88
2018-09-06T01:50:51.943Z,72.56
2018-09-06T01:53:19.981Z,72.98
2018-09-06T01:55:47.972Z,74.02
2018-09-06T01:58:15.982Z,73.17
2018-09-06T02:00:45.376Z,73.35
2018-09-06T02:03:13.363Z,74.00
2018-09-06T02:05:41.353Z,73.71
2018-09-06T02:08:09.365Z,75.19
2018-09-06T02:10:37.585Z,74.81
2018-09-06T02:13:05.588Z,75.84
2018-09-06T02:15:33.771Z,76.21
2018-09-06T02:18:01.813Z,77.21
2018-09-06T02:20:29.812Z,76.97
2018-09-06T02:22:57.976Z,77.18
2018-09-06T02:25:26.008Z,77.67
2018-09-06T02:27:54.024Z,77.26
2018-09-06T02:30:22.029Z,76.86
2018-09-06T02:32:50.033Z,76.64
2018-09-06T02:35:18.041Z,75.93
2018-09-06T02:37:46.039Z,76.53
2018-09-06T02:40:19.381Z,76.46
2018-09-06T02:42:47.456Z,77.24
2018-09-06T02:45:15.557Z,77.28
2018-09-06T02:47:49.029Z,76.78
2018-09-06T02:50:22.762Z,77.89
2018-09-06T02:52:51.176Z,78.30
2018-09-06T02:55:19.165Z,78.16
2018-09-06T02:57:47.248Z,78.99
2018-09-06T03:00:15.260Z,78.11
2018-09-06T03:02:43.265Z,79.24
2018-09-06T03:05:11.262Z,79.62
2018-09-06T03:07:39.265Z,79.95
2018-09-06T03:10:07.330Z,80.04
2018-09-06T03:12:35.386Z,79.80
2018-09-06T03:15:03.381Z,80.43
2018-09-06T03:17:31.392Z,80.51
2018-09-06T03:19:59.428Z,81.03
2018-09-06T03:22:27.480Z,80.79
2018-09-06T03:24:55.559Z,81.64
2018-09-06T03:27:23.554Z,82.54
2018-09-06T03:29:51.556Z,82.13
2018-09-06T03:32:19.573Z,83.09
2018-09-06T03:34:47.583Z,82.96
2018-09-06T03:37:15.809Z,82.66
2018-09-06T03:39:43.825Z,81.95
2018-09-06T03:42:11.844Z,82.28
2018-09-06T03:44:39.849Z,82.14
2018-09-06T03:47:07.836Z,82.18
2018-09-06T03:49:35.904Z,82.01
2018-09-06T03:52:03.897Z,82.44
2018-09-06T03:54:31.909Z,81.74
2018-09-06T03:56:59.943Z,81.83
2018-09-06T03:59:28.138Z,82.89
2018-09-06T04:01:56.132Z,82.33
2018-09-06T04:04:24.145Z,82.81
2018-09-06T04:06:52.138Z,83.33
2018-09-06T04:09:20.240Z,82.40
2018-09-06T04:11:48.248Z,81.60
2018-09-06T04:14:16.576Z,81.59
2018-09-06T04:16:44.608Z,82.14
2018-09-06T04:19:12.653Z,82.22
2018-09-06T04:21:40.783Z,81.67
2018-09-06T04:24:08.910Z,82.35
2018-09-06T04:26:36.957Z,82.62
2018-09-06T04:29:04.957Z,82.06
2018-09-06T04:31:33.009Z,82.03
2018-09-06T04:34:01.040Z,82.88
2018-09-06T04:36:29.211Z,82.03
2018-09-06T04:38:57.448Z,82.27
2018-09-06T04:41:25.465Z,82.97
2018-09-06T04:43:53.562Z,82.97
2018-09-06T04:46:21.536Z,82.61
2018-09-06T04:48:49.702Z,81.86
2018-09-06T04:51:17.844Z,83.09
2018-09-06T04:53:45.848Z,83.67
2018-09-06T04:56:14.083Z,83.95
2018-09-06T04:58:42.115Z,82.83
2018-09-06T05:01:10.104Z,82.99
2018-09-06T05:03:38.264Z,83.54
2018-09-06T05:06:06.360Z,84.19
2018-09-06T05:08:34.377Z,84.36
2018-09-06T05:11:02.445Z,84.87
2018-09-06T05:13:30.525Z,84.32
2018-09-06T05:15:58.544Z,83.01
2018-09-06T05:18:26.549Z,82.40
2018-09-06T05:20:54.546Z,79.33
2018-09-06T05:23:22.573Z,77.78
2018-09-06T05:25:50.571Z,76.39
2018-09-06T05:28:18.572Z,74.57
2018-09-06T05:30:46.612Z,73.49
2018-09-06T05:33:14.608Z,71.91
2018-09-06T05:35:42.657Z,71.68
2018-09-06T05:38:10.752Z,69.37
2018-09-06T05:40:38.771Z,67.30
2018-09-06T05:43:06.760Z,65.61
2018-09-06T05:45:34.994Z,64.01
2018-09-06T05:48:03.686Z,62.89
2018-09-06T05:50:31.944Z,60.65
2018-09-06T05:53:01.449Z,59.57
2018-09-06T05:55:29.457Z,57.69
2018-09-06T05:57:57.660Z,56.02
2018-09-06T06:00:30.948Z,54.87
2018-09-06T06:03:00.707Z,55.53
2018-09-06T06:05:28.876Z,55.11
2018-09-06T06:08:08.517Z,53.53
2018-09-06T06:10:36.765Z,52.92
2018-09-06T06:13:04.763Z,53.60
2018-09-06T06:15:32.756Z,52.09
2018-09-06T06:18:00.793Z,50.65
2018-09-06T06:20:28.827Z,50.49
2018-09-06T06:22:56.924Z,49.70
2018-09-06T06:25:24.922Z,47.67
2018-09-06T06:27:52.977Z,47.12
2018-09-06T06:30:21.035Z,47.12
2018-09-06T06:32:49.038Z,47.00
2018-09-06T06:35:17.096Z,45.77
2018-09-06T06:37:45.104Z,44.53
2018-09-06T06:40:13.270Z,45.26
2018-09-06T06:42:41.284Z,44.08
2018-09-06T06:45:09.281Z,44.03
2018-09-06T06:47:37.334Z,42.48
2018-09-06T06:50:05.345Z,43.20
2018-09-06T06:52:33.345Z,40.66
2018-09-06T06:55:01.341Z,40.36
2018-09-06T06:57:29.332Z,40.27
2018-09-06T06:59:57.379Z,39.13
2018-09-06T07:02:25.368Z,37.97
2018-09-06T07:04:53.537Z,38.68
2018-09-06T07:07:21.615Z,38.03
2018-09-06T07:09:49.608Z,37.63
2018-09-06T07:12:17.728Z,37.81
2018-09-06T07:14:45.735Z,38.54
2018-09-06T07:17:13.753Z,38.43
2018-09-06T07:19:41.755Z,37.69
2018-09-06T07:22:09.752Z,37.46
2018-09-06T07:24:37.832Z,36.57
2018-09-06T07:27:05.973Z,37.03
2018-09-06T07:29:33.998Z,35.88
2018-09-06T07:32:01.983Z,34.84
2018-09-06T07:34:29.982Z,36.22
2018-09-06T07:36:57.974Z,36.04
2018-09-06T07:39:25.966Z,36.41
2018-09-06T07:41:54.007Z,34.34
2018-09-06T07:44:21.985Z,33.83
2018-09-06T07:46:50.028Z,34.11
2018-09-06T07:49:17.977Z,34.42
2018-09-06T07:51:45.982Z,35.09
2018-09-06T07:54:14.062Z,35.49
2018-09-06T07:56:42.066Z,37.24
2018-09-06T07:59:10.065Z,35.64
2018-09-06T08:01:38.121Z,36.87
2018-09-06T08:04:06.261Z,37.20
2018-09-06T08:06:34.295Z,37.84
2018-09-06T08:09:02.289Z,36.39
2018-09-06T08:11:30.290Z,35.28
2018-09-06T08:13:58.293Z,35.62
2018-09-06T08:16:26.304Z,36.41
2018-09-06T08:18:54.334Z,36.05
2018-09-06T08:21:22.317Z,36.60
2018-09-06T08:23:51.392Z,37.43
2018-09-06T08:26:19.401Z,36.74
2018-09-06T08:28:47.417Z,36.97
2018-09-06T08:31:15.507Z,35.66
2018-09-06T08:33:43.444Z,34.60
2018-09-06T08:36:11.452Z,34.86
2018-09-06T08:38:39.452Z,33.56
2018-09-06T08:41:07.478Z,32.90
2018-09-06T08:43:35.569Z,34.57
2018-09-06T08:46:03.572Z,34.47
2018-09-06T08:48:31.572Z,33.99
2018-09-06T08:50:59.577Z,34.36
2018-09-06T08:53:27.576Z,34.51
2018-09-06T08:55:55.600Z,34.14
2018-09-06T08:58:23.810Z,34.49
2018-09-06T09:00:57.167Z,35.62
2018-09-06T09:03:25.161Z,35.54
2018-09-06T09:05:53.183Z,34.58
2018-09-06T09:08:21.209Z,35.46
2018-09-06T09:10:49.275Z,35.89
2018-09-06T09:13:17.416Z,35.82
2018-09-06T09:15:45.455Z,35.97
2018-09-06T09:18:13.726Z,35.85
2018-09-06T09:20:41.738Z,37.35
2018-09-06T09:23:09.772Z,36.16
2018-09-06T09:25:37.930Z,36.63
2018-09-06T09:28:05.890Z,36.83
2018-09-06T09:30:33.933Z,38.59
2018-09-06T09:33:01.904Z,38.74
2018-09-06T09:35:30.132Z,39.09
2018-09-06T09:37:58.220Z,39.43
2018-09-06T09:40:26.257Z,39.18
2018-09-06T09:42:54.277Z,40.11
2018-09-06T09:45:22.273Z,39.43
2018-09-06T09:47:50.307Z,40.11
2018-09-06T09:52:45.545Z,40.71
2018-09-06T09:55:13.578Z,40.94
2018-09-06T09:57:41.577Z,41.65
2018-09-06T10:00:09.629Z,41.41
2018-09-06T10:02:43.324Z,41.11
2018-09-06T10:05:16.921Z,42.06
2018-09-06T10:07:50.500Z,40.66
2018-09-06T10:10:18.515Z,41.70
2018-09-06T10:12:46.517Z,40.52
2018-09-06T10:15:14.514Z,40.42
2018-09-06T10:17:42.504Z,41.54
2018-09-06T10:20:10.505Z,40.49
2018-09-06T10:22:38.512Z,40.97
2018-09-06T10:25:06.570Z,39.93
2018-09-06T10:27:34.661Z,39.88
2018-09-06T10:30:02.676Z,39.69
2018-09-06T10:32:30.790Z,39.46
2018-09-06T10:34:58.772Z,40.57
2018-09-06T10:37:26.763Z,41.15
2018-09-06T10:39:54.870Z,39.70
2018-09-06T10:42:22.966Z,38.62
2018-09-06T10:44:51.006Z,39.00
2018-09-06T10:47:19.028Z,38.79
2018-09-06T10:49:47.045Z,39.15
2018-09-06T10:52:15.056Z,37.57
2018-09-06T10:54:43.092Z,37.33
2018-09-06T10:57:11.101Z,36.35
2018-09-06T10:59:39.096Z,38.12
2018-09-06T11:02:07.096Z,37.68
2018-09-06T11:04:35.104Z,37.49
2018-09-06T11:07:03.097Z,36.85
2018-09-06T11:09:31.152Z,36.63
2018-09-06T11:11:59.173Z,35.78
2018-09-06T11:14:27.156Z,37.11
2018-09-06T11:16:55.165Z,36.99
2018-09-06T11:19:23.241Z,37.23
2018-09-06T11:21:51.466Z,36.08
2018-09-06T11:24:19.280Z,37.61
2018-09-06T11:26:47.501Z,38.07
2018-09-06T11:29:15.574Z,38.24
2018-09-06T11:31:43.721Z,37.99
2018-09-06T11:34:11.713Z,36.29
2018-09-06T11:36:39.712Z,37.15
2018-09-06T11:39:09.065Z,35.58
2018-09-06T11:41:37.482Z,36.77
2018-09-06T11:44:05.843Z,36.47
2018-09-06T11:46:33.854Z,36.67
2018-09-06T11:49:01.875Z,35.90
2018-09-06T11:51:29.924Z,36.19
2018-09-06T11:53:58.201Z,35.68
2018-09-06T11:56:26.268Z,35.91
2018-09-06T11:58:54.468Z,35.29
2018-09-06T12:01:22.468Z,35.00
2018-09-06T12:03:50.553Z,36.10
2018-09-06T12:06:18.758Z,34.96
2018-09-06T12:08:46.802Z,34.53
2018-09-06T12:11:14.861Z,34.15
2018-09-06T12:13:42.951Z,34.53
2018-09-06T12:16:10.972Z,33.74
2018-09-06T12:18:38.995Z,33.05
2018-09-06T12:21:07.039Z,33.64
2018-09-06T12:23:35.049Z,33.36
2018-09-06T12:26:03.065Z,34.36
2018-09-06T12:28:31.069Z,35.58
2018-09-06T12:30:59.088Z,34.47
2018-09-06T12:33:27.150Z,34.90
2018-09-06T12:35:55.114Z,35.38
2018-09-06T12:38:23.110Z,35.68
2018-09-06T12:40:51.505Z,33.87
2018-09-06T12:43:19.811Z,32.99
2018-09-06T12:45:47.961Z,32.23
2018-09-06T12:48:15.984Z,32.38
2018-09-06T12:50:44.023Z,32.68
2018-09-06T12:53:12.063Z,33.68
2018-09-06T12:55:40.180Z,32.05
2018-09-06T12:58:08.356Z,32.60
2018-09-06T13:00:36.377Z,33.51
2018-09-06T13:03:04.464Z,32.37
2018-09-06T13:05:32.537Z,32.08
2018-09-06T13:08:00.600Z,32.57
2018-09-06T13:10:28.585Z,33.60
2018-09-06T13:12:56.753Z,32.44
2018-09-06T13:15:24.748Z,35.29
2018-09-06T13:17:52.872Z,33.50
2018-09-06T13:20:20.900Z,34.15
2018-09-06T13:22:48.961Z,33.09
2018-09-06T13:25:17.035Z,31.71
2018-09-06T13:27:45.133Z,33.17
2018-09-06T13:30:13.125Z,33.05
2018-09-06T13:32:41.350Z,32.21
2018-09-06T13:35:09.357Z,32.81
2018-09-06T13:37:37.457Z,32.48
2018-09-06T13:40:05.652Z,32.82
2018-09-06T13:42:33.744Z,33.90
2018-09-06T13:45:01.814Z,34.28
2018-09-06T13:47:29.931Z,34.99
2018-09-06T13:49:57.965Z,34.66
2018-09-06T13:52:26.042Z,35.28
2018-09-06T13:54:54.066Z,36.48
2018-09-06T13:57:22.108Z,34.29
2018-09-06T13:59:50.184Z,34.39
2018-09-06T14:02:18.183Z,33.90
2018-09-06T14:04:46.290Z,33.41
2018-09-06T14:07:14.326Z,34.30
2018-09-06T14:09:42.389Z,34.30
2018-09-06T14:12:10.515Z,35.60
2018-09-06T14:14:38.505Z,34.81
2018-09-06T14:17:06.535Z,34.04
2018-09-06T14:19:34.524Z,34.32
2018-09-06T14:22:02.536Z,33.77
2018-09-06T14:24:30.545Z,33.66
2018-09-06T14:26:59.050Z,33.45
2018-09-06T14:29:27.059Z,33.05
2018-09-06T14:31:55.067Z,34.04
2018-09-06T14:34:23.324Z,34.10
2018-09-06T14:36:51.341Z,33.36
2018-09-06T14:39:19.368Z,34.54
2018-09-06T14:41:47.444Z,33.50
2018-09-06T14:44:15.521Z,33.84
2018-09-06T14:46:43.524Z,34.44
2018-09-06T14:49:11.556Z,33.84
2018-09-06T14:51:39.572Z,33.72
2018-09-06T14:54:07.626Z,35.68
2018-09-06T14:56:35.809Z,36.72
2018-09-06T14:59:04.105Z,40.79
2018-09-06T15:01:32.194Z,43.74
2018-09-06T15:04:00.136Z,45.86
2018-09-06T15:06:28.149Z,48.45
2018-09-06T15:08:56.228Z,50.79
2018-09-06T15:11:24.238Z,53.48
2018-09-06T15:13:52.312Z,53.68
2018-09-06T15:16:20.327Z,56.91
2018-09-06T15:18:48.360Z,61.09
2018-09-06T15:21:16.456Z,65.25
2018-09-06T15:23:44.477Z,65.85
2018-09-06T15:26:12.476Z,68.94
2018-09-06T15:28:40.489Z,70.72
2018-09-06T15:31:08.646Z,72.77
2018-09-06T15:33:36.669Z,75.01
2018-09-06T15:36:04.724Z,75.11
2018-09-06T15:38:32.720Z,77.11
2018-09-06T15:41:00.721Z,77.15
2018-09-06T15:43:28.757Z,76.40
2018-09-06T15:45:56.849Z,76.14
2018-09-06T15:48:25.024Z,75.94
2018-09-06T15:50:53.028Z,76.11
2018-09-06T15:53:21.077Z,75.89
2018-09-06T15:55:49.104Z,76.12
2018-09-06T15:58:17.105Z,75.34
2018-09-06T16:00:45.377Z,75.04
2018-09-06T16:03:13.385Z,73.97
2018-09-06T16:05:41.465Z,73.40
2018-09-06T16:08:09.481Z,73.43
2018-09-06T16:10:37.593Z,74.20
2018-09-06T16:13:05.589Z,74.22
2018-09-06T16:15:33.637Z,73.32
2018-09-06T16:18:01.644Z,72.57
2018-09-06T16:20:29.661Z,72.36
2018-09-06T16:22:57.744Z,71.97
2018-09-06T16:25:25.785Z,71.81
2018-09-06T16:27:53.901Z,72.25
2018-09-06T16:30:21.986Z,72.17
2018-09-06T16:32:49.914Z,72.18
2018-09-06T16:35:17.921Z,71.85
2018-09-06T16:37:46.094Z,71.22
2018-09-06T16:40:14.130Z,71.48
2018-09-06T16:42:42.348Z,71.48
2018-09-06T16:45:10.306Z,71.44
2018-09-06T16:47:38.309Z,71.65
2018-09-06T16:50:06.380Z,71.83
2018-09-06T16:52:34.451Z,71.74
2018-09-06T16:55:02.448Z,71.94
2018-09-06T16:57:30.487Z,70.78
2018-09-06T16:59:58.495Z,70.44
2018-09-06T17:02:26.521Z,71.75
2018-09-06T17:04:54.545Z,72.52
2018-09-06T17:07:22.589Z,73.53
2018-09-06T17:09:50.668Z,73.83
2018-09-06T17:12:18.674Z,73.50
2018-09-06T17:14:46.805Z,73.26
2018-09-06T17:17:15.048Z,73.62
2018-09-06T17:19:43.090Z,72.88
2018-09-06T17:22:11.215Z,71.98
2018-09-06T17:24:39.229Z,71.64
2018-09-06T17:27:07.229Z,72.54
2018-09-06T17:29:35.342Z,71.23
2018-09-06T17:32:03.349Z,71.86
2018-09-06T17:34:31.371Z,71.42
2018-09-06T17:36:59.393Z,70.89
2018-09-06T17:39:27.492Z,71.68
2018-09-06T17:41:55.629Z,71.07
2018-09-06T17:44:23.849Z,71.92
2018-09-06T17:46:51.911Z,72.75
2018-09-06T17:49:19.964Z,72.95
2018-09-06T17:51:48.081Z,73.91
2018-09-06T17:54:16.164Z,74.47
2018-09-06T17:56:44.238Z,73.79
2018-09-06T17:59:12.260Z,74.38
2018-09-06T18:01:41.569Z,74.81
2018-09-06T18:04:09.578Z,75.37
2018-09-06T18:06:37.653Z,74.31
2018-09-06T18:09:08.278Z,73.33
2018-09-06T18:11:36.333Z,72.60
2018-09-06T18:14:04.346Z,73.07
2018-09-06T18:16:32.391Z,73.17
2018-09-06T18:19:00.412Z,73.88
2018-09-06T18:21:28.487Z,73.59
2018-09-06T18:23:57.105Z,73.24
2018-09-06T18:26:25.441Z,73.77
2018-09-06T18:28:53.495Z,74.06
2018-09-06T18:31:21.501Z,74.13
2018-09-06T18:33:49.565Z,74.03
2018-09-06T18:36:17.613Z,75.18
2018-09-06T18:38:46.465Z,74.48
2018-09-06T18:41:14.502Z,74.34
2018-09-06T18:43:42.595Z,74.61
2018-09-06T18:46:10.612Z,75.64
2018-09-06T18:48:38.764Z,75.89
2018-09-06T18:51:06.776Z,75.51
2018-09-06T18:53:34.960Z,74.91
2018-09-06T18:56:02.977Z,75.89
2018-09-06T18:58:31.090Z,76.51
2018-09-06T19:00:59.144Z,77.29
2018-09-06T19:03:27.181Z,77.75
2018-09-06T19:05:55.229Z,78.36
2018-09-06T19:08:23.360Z,77.87
2018-09-06T19:10:51.432Z,76.58
2018-09-06T19:13:19.437Z,76.84
2018-09-06T19:15:47.664Z,76.48
2018-09-06T19:18:15.927Z,74.85
2018-09-06T19:20:44.061Z,74.97
2018-09-06T19:23:12.136Z,75.61
2018-09-06T19:25:40.175Z,76.24
2018-09-06T19:28:08.161Z,76.07
2018-09-06T19:30:36.232Z,75.72
2018-09-06T19:33:04.558Z,75.96
2018-09-06T19:35:33.674Z,76.67
2018-09-06T19:38:02.489Z,75.64
2018-09-06T19:40:30.529Z,76.65
2018-09-06T19:42:58.531Z,76.42
2018-09-06T19:45:26.613Z,75.65
2018-09-06T19:47:54.908Z,75.35
2018-09-06T19:50:23.053Z,75.05
2018-09-06T19:52:51.135Z,75.49
2018-09-06T19:55:19.169Z,77.09
2018-09-06T19:57:47.180Z,77.17
2018-09-06T20:00:15.243Z,77.37
2018-09-06T20:02:44.332Z,77.57
2018-09-06T20:05:12.336Z,76.74
2018-09-06T20:07:40.360Z,76.16
2018-09-06T20:10:08.533Z,76.73
2018-09-06T20:12:36.945Z,75.76
2018-09-06T20:15:05.050Z,75.80
2018-09-06T20:17:33.085Z,76.01
2018-09-06T20:20:01.100Z,75.38
2018-09-06T20:22:29.113Z,75.22
2018-09-06T20:24:57.333Z,76.23
2018-09-06T20:27:25.372Z,76.34
2018-09-06T20:29:53.606Z,76.59
2018-09-06T20:32:21.636Z,76.41
2018-09-06T20:34:49.647Z,75.58
2018-09-06T20:37:17.681Z,75.83
2018-09-06T20:39:45.741Z,76.31
2018-09-06T20:42:13.762Z,76.28
2018-09-06T20:44:41.832Z,75.73
2018-09-06T20:47:09.849Z,76.36
2018-09-06T20:49:37.852Z,75.48
2018-09-06T20:52:05.916Z,75.80
2018-09-06T20:54:34.155Z,76.52
2018-09-06T20:57:02.332Z,77.00
2018-09-06T20:59:30.420Z,76.75
2018-09-06T21:02:02.589Z,76.67
2018-09-06T21:04:30.598Z,77.48
2018-09-06T21:06:58.651Z,76.76
2018-09-06T21:09:26.675Z,77.86
2018-09-06T21:11:55.771Z,77.47
2018-09-06T21:14:23.908Z,77.74
2018-09-06T21:16:51.977Z,78.11
2018-09-06T21:19:20.049Z,77.99
2018-09-06T21:21:48.164Z,77.52
2018-09-06T21:24:16.181Z,77.56
2018-09-06T21:26:44.212Z,78.00
2018-09-06T21:29:12.217Z,77.65
2018-09-06T21:31:40.261Z,78.62
2018-09-06T21:34:08.265Z,78.97
2018-09-06T21:36:36.309Z,79.95
2018-09-06T21:39:06.127Z,79.77
2018-09-06T21:41:34.148Z,80.63
2018-09-06T21:44:02.276Z,80.11
2018-09-06T21:46:30.400Z,79.57
2018-09-06T21:48:58.404Z,80.49
2018-09-06T21:51:26.625Z,79.43
2018-09-06T21:53:54.633Z,79.46
2018-09-06T21:56:22.852Z,79.66
2018-09-06T21:58:50.837Z,79.96
2018-09-06T22:01:18.916Z,80.08
2018-09-06T22:03:52.349Z,80.58
2018-09-06T22:06:20.599Z,80.74
2018-09-06T22:08:48.604Z,80.17
2018-09-06T22:11:16.684Z,80.13
2018-09-06T22:13:44.698Z,80.69
2018-09-06T22:16:12.710Z,80.21
2018-09-06T22:18:40.777Z,79.86
2018-09-06T22:21:08.812Z,79.80
2018-09-06T22:23:36.836Z,79.26
2018-09-06T22:26:04.837Z,79.49
2018-09-06T22:28:32.929Z,79.29
2018-09-06T22:31:01.081Z,79.03
2018-09-06T22:33:29.210Z,79.85
2018-09-06T22:35:57.220Z,79.45
2018-09-06T22:38:25.245Z,79.60
2018-09-06T22:40:53.261Z,79.82
2018-09-06T22:43:21.485Z,80.44
2018-09-06T22:45:49.488Z,80.36
2018-09-06T22:48:17.493Z,80.08
2018-09-06T22:53:13.788Z,79.52
2018-09-06T22:55:41.907Z,80.57
2018-09-06T22:58:09.969Z,81.06
2018-09-06T23:00:38.245Z,82.28
2018-09-06T23:03:11.753Z,83.10
2018-09-06T23:05:39.768Z,82.72
2018-09-06T23:08:07.781Z,81.64
2018-09-06T23:10:35.833Z,81.77
2018-09-06T23:13:04.849Z,81.17
2018-09-06T23:15:32.864Z,81.68
2018-09-06T23:18:00.885Z,82.05
2018-09-06T23:20:28.949Z,80.57
2018-09-06T23:22:56.982Z,81.16
2018-09-06T23:25:25.008Z,80.95
2018-09-06T23:27:53.016Z,81.14
2018-09-06T23:30:21.140Z,80.56
2018-09-06T23:32:49.457Z,81.97
2018-09-06T23:37:37.034Z,81.11
2018-09-06T23:40:05.541Z,81.14
2018-09-06T23:42:33.556Z,81.25
2018-09-06T23:45:01.683Z,81.10
2018-09-06T23:47:29.712Z,81.35
2018-09-06T23:49:57.757Z,81.93
2018-09-06T23:52:25.916Z,81.72
2018-09-06T23:54:54.076Z,82.40
2018-09-06T23:57:22.136Z,83.70
2018-09-06T23:59:51.105Z,82.91
